createdAt,value
2022-10-25T00:01:05.602Z,97429.00
2022-10-25T00:04:07.034Z,97431.66
2022-10-25T00:07:08.518Z,97431.66
2022-10-25T00:10:09.863Z,97433.31
2022-10-25T00:13:11.249Z,97433.09
2022-10-25T00:16:16.541Z,97435.47
2022-10-25T00:19:17.980Z,97426.22
2022-10-25T00:22:19.331Z,97433.69
2022-10-25T00:25:20.766Z,97438.34
2022-10-25T00:28:22.181Z,97429.75
2022-10-25T00:31:26.028Z,97430.78
2022-10-25T00:34:27.413Z,97433.63
2022-10-25T00:37:28.820Z,97432.53
2022-10-25T00:40:30.215Z,97431.22
2022-10-25T00:43:37.574Z,97445.28
2022-10-25T00:46:41.932Z,97451.22
2022-10-25T00:49:44.294Z,97435.53
2022-10-25T00:52:47.240Z,97446.28
2022-10-25T00:55:51.743Z,97448.09
2022-10-25T00:58:55.422Z,97449.75
2022-10-25T01:01:57.388Z,97440.16
2022-10-25T01:04:58.936Z,97444.16
2022-10-25T01:08:00.369Z,97436.75
2022-10-25T01:11:01.743Z,97442.56
2022-10-25T01:14:03.839Z,97446.91
2022-10-25T01:17:12.712Z,97439.44
2022-10-25T01:20:46.312Z,97436.63
2022-10-25T01:24:17.189Z,97442.72
2022-10-25T01:27:29.434Z,97447.22
2022-10-25T01:30:49.458Z,97444.56
2022-10-25T01:34:07.356Z,97447.38
2022-10-25T01:37:11.861Z,97440.25
2022-10-25T01:40:21.196Z,97439.91
2022-10-25T01:43:28.486Z,97442.06
2022-10-25T01:46:34.922Z,97431.94
2022-10-25T01:49:44.423Z,97431.47
2022-10-25T01:52:45.815Z,97434.94
2022-10-25T01:55:47.228Z,97426.94
2022-10-25T01:58:48.596Z,97434.66
2022-10-25T02:02:08.938Z,97435.22
2022-10-25T02:05:10.364Z,97429.72
2022-10-25T02:08:21.462Z,97438.78
2022-10-25T02:11:24.424Z,97438.88
2022-10-25T02:14:29.971Z,97432.41
2022-10-25T02:17:33.916Z,97428.47
2022-10-25T02:20:35.867Z,97427.16
2022-10-25T02:23:37.761Z,97435.56
2022-10-25T02:26:41.038Z,97439.06
2022-10-25T02:29:44.133Z,97430.06
2022-10-25T02:32:45.616Z,97425.50
2022-10-25T02:36:04.362Z,97430.47
2022-10-25T02:39:06.736Z,97433.81
2022-10-25T02:42:08.179Z,97429.88
2022-10-25T02:45:09.990Z,97418.19
2022-10-25T02:48:11.479Z,97425.00
2022-10-25T02:51:13.575Z,97423.38
2022-10-25T02:54:15.102Z,97429.81
2022-10-25T02:57:16.478Z,97430.34
2022-10-25T03:00:18.061Z,97423.09
2022-10-25T03:03:19.480Z,97431.41
2022-10-25T03:06:20.987Z,97427.75
2022-10-25T03:09:22.488Z,97422.63
2022-10-25T03:12:23.905Z,97424.63
2022-10-25T03:15:25.323Z,97424.00
2022-10-25T03:18:26.716Z,97421.50
2022-10-25T03:21:28.203Z,97425.47
2022-10-25T03:24:29.710Z,97433.13
2022-10-25T03:27:31.138Z,97431.81
2022-10-25T03:30:32.569Z,97426.03
2022-10-25T03:33:34.497Z,97431.53
2022-10-25T03:36:35.880Z,97433.47
2022-10-25T03:39:37.276Z,97430.19
2022-10-25T03:42:38.700Z,97438.13
2022-10-25T03:45:40.132Z,97440.78
2022-10-25T03:48:42.009Z,97439.44
2022-10-25T03:51:43.428Z,97444.84
2022-10-25T03:54:44.834Z,97451.09
2022-10-25T03:57:46.494Z,97452.53
2022-10-25T04:00:48.142Z,97451.38
2022-10-25T04:03:49.677Z,97449.44
2022-10-25T04:06:51.094Z,97449.91
2022-10-25T04:09:52.521Z,97438.16
2022-10-25T04:12:54.797Z,97440.63
2022-10-25T04:15:56.719Z,97452.03
2022-10-25T04:18:59.067Z,97449.84
2022-10-25T04:22:02.496Z,97448.50
2022-10-25T04:25:04.105Z,97449.13
2022-10-25T04:28:05.587Z,97442.47
2022-10-25T04:31:07.017Z,97447.03
2022-10-25T04:34:08.428Z,97444.88
2022-10-25T04:37:09.941Z,97451.00
2022-10-25T04:40:11.851Z,97450.41
2022-10-25T04:43:13.315Z,97452.47
2022-10-25T04:46:14.881Z,97459.78
2022-10-25T04:49:16.391Z,97444.63
2022-10-25T04:52:19.175Z,97441.63
2022-10-25T04:55:20.581Z,97442.31
2022-10-25T04:58:21.935Z,97442.19
2022-10-25T05:01:23.462Z,97448.81
2022-10-25T05:04:24.926Z,97453.44
2022-10-25T05:07:26.448Z,97449.34
2022-10-25T05:10:27.880Z,97450.03
2022-10-25T05:13:31.495Z,97455.81
2022-10-25T05:16:34.983Z,97461.91
2022-10-25T05:19:36.396Z,97459.81
2022-10-25T05:22:37.839Z,97454.03
2022-10-25T05:25:39.311Z,97459.00
2022-10-25T05:28:42.174Z,97449.75
2022-10-25T05:31:43.656Z,97458.03
2022-10-25T05:34:45.064Z,97458.34
2022-10-25T05:37:47.515Z,97458.19
2022-10-25T05:44:01.280Z,97465.31
2022-10-25T05:47:02.904Z,97470.09
2022-10-25T05:50:04.411Z,97468.63
2022-10-25T05:53:05.924Z,97467.97
2022-10-25T05:56:07.315Z,97466.97
2022-10-25T05:59:10.081Z,97476.88
2022-10-25T06:02:12.021Z,97464.16
2022-10-25T06:05:13.573Z,97470.94
2022-10-25T06:08:14.972Z,97466.50
2022-10-25T06:11:17.736Z,97469.16
2022-10-25T06:14:19.216Z,97472.28
2022-10-25T06:17:20.639Z,97468.63
2022-10-25T06:20:22.041Z,97471.59
2022-10-25T06:23:23.480Z,97479.53
2022-10-25T06:26:26.456Z,97481.69
2022-10-25T06:29:30.669Z,97484.00
2022-10-25T06:32:32.162Z,97487.78
2022-10-25T06:35:33.871Z,97483.16
2022-10-25T06:38:35.445Z,97485.47
2022-10-25T06:41:37.501Z,97497.00
2022-10-25T06:44:39.337Z,97496.97
2022-10-25T06:47:44.697Z,97503.72
2022-10-25T06:50:48.545Z,97506.16
2022-10-25T06:53:55.984Z,97502.31
2022-10-25T06:56:57.892Z,97500.97
2022-10-25T07:00:02.339Z,97502.25
2022-10-25T07:03:03.735Z,97504.50
2022-10-25T07:06:06.334Z,97510.75
2022-10-25T07:09:09.870Z,97517.66
2022-10-25T07:12:12.795Z,97524.06
2022-10-25T07:15:14.595Z,97521.19
2022-10-25T07:18:17.467Z,97514.03
2022-10-25T07:21:20.613Z,97508.31
2022-10-25T07:24:24.441Z,97513.38
2022-10-25T07:27:25.885Z,97514.78
2022-10-25T07:30:27.336Z,97517.38
2022-10-25T07:33:30.169Z,97518.41
2022-10-25T07:36:31.711Z,97523.47
2022-10-25T07:39:33.097Z,97518.06
2022-10-25T07:42:34.529Z,97524.94
2022-10-25T07:45:36.897Z,97524.69
2022-10-25T07:48:38.333Z,97521.34
2022-10-25T07:51:39.820Z,97514.59
2022-10-25T07:54:41.230Z,97524.72
2022-10-25T07:57:42.638Z,97519.50
2022-10-25T08:00:44.240Z,97521.44
2022-10-25T08:03:45.708Z,97522.34
2022-10-25T08:06:47.101Z,97516.16
2022-10-25T08:09:48.523Z,97515.94
2022-10-25T08:12:50.087Z,97511.81
2022-10-25T08:15:52.850Z,97514.72
2022-10-25T08:18:54.314Z,97513.16
2022-10-25T08:21:55.724Z,97513.88
2022-10-25T08:24:57.175Z,97505.38
2022-10-25T08:27:58.561Z,97510.38
2022-10-25T08:31:01.248Z,97506.03
2022-10-25T08:34:03.169Z,97500.00
2022-10-25T08:37:04.833Z,97499.28
2022-10-25T08:40:06.729Z,97505.72
2022-10-25T08:43:14.681Z,97507.84
2022-10-25T08:46:21.958Z,97503.63
2022-10-25T08:49:24.144Z,97500.81
2022-10-25T08:52:45.783Z,97504.97
2022-10-25T08:59:13.594Z,97509.63
2022-10-25T09:02:21.877Z,97502.13
2022-10-25T09:05:26.210Z,97505.84
2022-10-25T09:08:46.635Z,97507.75
2022-10-25T09:11:50.552Z,97510.63
2022-10-25T09:15:07.400Z,97513.13
2022-10-25T09:18:16.488Z,97514.38
2022-10-25T09:21:37.265Z,97504.13
2022-10-25T09:24:38.688Z,97505.38
2022-10-25T09:27:47.510Z,97504.53
2022-10-25T09:30:49.949Z,97509.28
2022-10-25T09:33:58.778Z,97511.72
2022-10-25T09:37:25.761Z,97504.97
2022-10-25T09:40:33.213Z,97503.72
2022-10-25T09:43:40.874Z,97509.88
2022-10-25T09:46:45.090Z,97512.53
2022-10-25T09:49:56.278Z,97507.00
2022-10-25T09:53:00.550Z,97500.41
2022-10-25T09:56:04.442Z,97499.97
2022-10-25T09:59:05.829Z,97497.75
2022-10-25T10:02:11.829Z,97495.03
2022-10-25T10:05:14.544Z,97490.13
2022-10-25T10:08:16.520Z,97495.88
2022-10-25T10:11:19.173Z,97494.63
2022-10-25T10:14:38.431Z,97498.69
2022-10-25T10:17:39.900Z,97504.84
2022-10-25T10:20:55.210Z,97498.91
2022-10-25T10:24:05.041Z,97497.22
2022-10-25T10:27:08.467Z,97500.28
2022-10-25T10:30:19.211Z,97501.09
2022-10-25T10:33:21.962Z,97492.41
2022-10-25T10:36:24.523Z,97493.00
2022-10-25T10:39:25.926Z,97493.19
2022-10-25T10:42:34.150Z,97486.19
2022-10-25T10:45:35.637Z,97484.53
2022-10-25T10:48:42.126Z,97484.91
2022-10-25T10:51:45.739Z,97477.88
2022-10-25T10:54:48.081Z,97482.94
2022-10-25T10:57:52.175Z,97477.34
2022-10-25T11:01:02.020Z,97468.03
2022-10-25T11:04:03.535Z,97468.34
2022-10-25T11:07:20.312Z,97466.44
2022-10-25T11:10:25.868Z,97458.59
2022-10-25T11:13:28.281Z,97466.34
2022-10-25T11:16:42.151Z,97470.81
2022-10-25T11:20:02.197Z,97462.09
2022-10-25T11:23:08.094Z,97467.41
2022-10-25T11:26:09.452Z,97456.28
2022-10-25T11:29:19.404Z,97456.00
2022-10-25T11:32:23.922Z,97455.34
2022-10-25T11:35:28.167Z,97460.50
2022-10-25T11:38:35.763Z,97453.88
2022-10-25T11:41:58.316Z,97447.84
2022-10-25T11:45:05.914Z,97452.97
2022-10-25T11:48:13.685Z,97451.94
2022-10-25T11:51:27.055Z,97451.63
2022-10-25T11:54:31.430Z,97449.09
2022-10-25T11:57:47.893Z,97441.97
2022-10-25T12:00:55.544Z,97444.03
2022-10-25T12:04:09.891Z,97438.59
2022-10-25T12:07:18.993Z,97432.63
2022-10-25T12:10:34.705Z,97434.72
2022-10-25T12:13:39.627Z,97427.69
2022-10-25T12:16:41.527Z,97429.94
2022-10-25T12:19:45.529Z,97428.44
2022-10-25T12:22:50.036Z,97429.25
2022-10-25T12:26:00.259Z,97431.78
2022-10-25T12:29:03.177Z,97433.06
2022-10-25T12:32:10.475Z,97422.13
2022-10-25T12:35:18.093Z,97421.13
2022-10-25T12:38:29.924Z,97416.16
2022-10-25T12:41:34.551Z,97411.16
2022-10-25T12:44:38.830Z,97416.59
2022-10-25T12:47:55.648Z,97407.41
2022-10-25T12:51:00.093Z,97414.06
2022-10-25T12:54:07.699Z,97403.34
2022-10-25T12:57:09.103Z,97406.50
2022-10-25T13:03:54.456Z,97408.88
2022-10-25T13:06:56.225Z,97412.22
2022-10-25T13:10:14.983Z,97406.19
2022-10-25T13:13:22.588Z,97417.16
2022-10-25T13:16:28.592Z,97398.84
2022-10-25T13:22:52.121Z,97388.44
2022-10-25T13:25:53.928Z,97396.75
2022-10-25T13:28:59.919Z,97390.19
2022-10-25T13:32:10.341Z,97393.00
2022-10-25T13:35:34.281Z,97381.47
2022-10-25T13:38:39.648Z,97380.66
2022-10-25T13:41:47.586Z,97377.97
2022-10-25T13:45:04.083Z,97380.06
2022-10-25T13:48:15.717Z,97374.47
2022-10-25T13:51:21.508Z,97377.41
2022-10-25T13:54:25.919Z,97373.19
2022-10-25T13:57:48.357Z,97372.50
2022-10-25T14:00:53.056Z,97374.47
2022-10-25T14:04:02.372Z,97378.56
2022-10-25T14:07:22.295Z,97372.72
2022-10-25T14:10:26.136Z,97369.56
2022-10-25T14:13:30.441Z,97367.47
2022-10-25T14:16:33.294Z,97363.38
2022-10-25T14:19:37.799Z,97358.69
2022-10-25T14:22:41.534Z,97359.78
2022-10-25T14:25:56.649Z,97352.75
2022-10-25T14:29:14.498Z,97346.69
2022-10-25T14:32:20.591Z,97345.13
2022-10-25T14:35:22.509Z,97351.09
2022-10-25T14:38:25.359Z,97343.00
2022-10-25T14:41:31.128Z,97348.38
2022-10-25T14:44:43.568Z,97344.94
2022-10-25T14:47:45.018Z,97344.59
2022-10-25T14:50:46.404Z,97338.09
2022-10-25T14:53:55.801Z,97338.81
2022-10-25T14:56:59.325Z,97336.88
2022-10-25T15:00:02.247Z,97333.88
2022-10-25T15:03:11.668Z,97334.47
2022-10-25T15:06:24.483Z,97329.13
2022-10-25T15:09:43.059Z,97337.53
2022-10-25T15:12:51.611Z,97338.63
2022-10-25T15:15:54.798Z,97341.50
2022-10-25T15:19:04.616Z,97339.53
2022-10-25T15:22:07.411Z,97339.09
2022-10-25T15:25:19.262Z,97332.41
2022-10-25T15:28:21.055Z,97342.19
2022-10-25T15:31:24.833Z,97348.63
2022-10-25T15:34:26.409Z,97344.22
2022-10-25T15:37:28.418Z,97336.28
2022-10-25T15:40:30.026Z,97337.63
2022-10-25T15:43:31.419Z,97333.25
2022-10-25T15:46:37.923Z,97337.09
2022-10-25T15:49:42.361Z,97326.31
2022-10-25T15:52:43.960Z,97323.91
2022-10-25T15:55:45.765Z,97322.09
2022-10-25T15:58:47.868Z,97326.28
2022-10-25T16:01:51.775Z,97333.50
2022-10-25T16:04:53.405Z,97326.56
2022-10-25T16:07:54.926Z,97326.38
2022-10-25T16:10:57.265Z,97329.25
2022-10-25T16:13:58.934Z,97330.66
2022-10-25T16:17:00.341Z,97324.06
2022-10-25T16:20:01.804Z,97326.13
2022-10-25T16:23:03.181Z,97328.34
2022-10-25T16:26:04.628Z,97328.13
2022-10-25T16:29:06.387Z,97318.69
2022-10-25T16:32:07.846Z,97315.56
2022-10-25T16:35:09.669Z,97311.66
2022-10-25T16:41:24.833Z,97305.66
2022-10-25T16:44:26.351Z,97304.56
2022-10-25T16:47:28.074Z,97299.16
2022-10-25T16:50:30.412Z,97299.59
2022-10-25T16:53:31.766Z,97296.69
2022-10-25T16:56:33.245Z,97290.50
2022-10-25T16:59:34.645Z,97281.66
2022-10-25T17:02:36.037Z,97278.75
2022-10-25T17:05:39.746Z,97292.44
2022-10-25T17:08:41.172Z,97289.56
2022-10-25T17:11:42.875Z,97300.97
2022-10-25T17:14:44.343Z,97310.50
2022-10-25T17:17:46.445Z,97311.47
2022-10-25T17:20:49.947Z,97303.97
2022-10-25T17:23:51.352Z,97307.28
2022-10-25T17:26:52.846Z,97302.88
2022-10-25T17:29:54.367Z,97312.03
2022-10-25T17:32:55.803Z,97314.75
2022-10-25T17:35:57.208Z,97319.25
2022-10-25T17:38:59.309Z,97316.53
2022-10-25T17:42:00.811Z,97319.13
2022-10-25T17:45:02.244Z,97323.88
2022-10-25T17:48:04.263Z,97320.59
2022-10-25T17:51:07.142Z,97323.44
2022-10-25T17:54:09.893Z,97319.13
2022-10-25T17:57:11.314Z,97316.47
2022-10-25T18:00:14.117Z,97314.38
2022-10-25T18:03:16.607Z,97320.78
2022-10-25T18:06:19.913Z,97317.16
2022-10-25T18:09:21.356Z,97327.59
2022-10-25T18:12:22.830Z,97330.06
2022-10-25T18:15:24.260Z,97324.13
2022-10-25T18:18:25.657Z,97320.84
2022-10-25T18:21:27.480Z,97312.63
2022-10-25T18:24:29.106Z,97318.94
2022-10-25T18:27:32.769Z,97321.41
2022-10-25T18:30:36.828Z,97307.31
2022-10-25T18:33:39.244Z,97303.63
2022-10-25T18:36:40.640Z,97303.44
2022-10-25T18:39:42.064Z,97296.94
2022-10-25T18:42:43.513Z,97293.88
2022-10-25T18:45:45.067Z,97294.50
2022-10-25T18:48:51.448Z,97281.06
2022-10-25T18:51:52.807Z,97279.03
2022-10-25T18:54:54.331Z,97274.34
2022-10-25T18:57:57.543Z,97263.09
2022-10-25T19:01:06.223Z,97265.38
2022-10-25T19:04:07.768Z,97265.19
2022-10-25T19:07:09.180Z,97253.34
2022-10-25T19:10:10.632Z,97248.66
2022-10-25T19:13:18.750Z,97248.88
2022-10-25T19:16:20.261Z,97247.47
2022-10-25T19:19:21.772Z,97246.44
2022-10-25T19:22:23.200Z,97250.56
2022-10-25T19:25:25.705Z,97242.41
2022-10-25T19:28:27.108Z,97245.06
2022-10-25T19:31:28.832Z,97249.53
2022-10-25T19:34:30.233Z,97245.06
2022-10-25T19:37:31.962Z,97249.53
2022-10-25T19:40:33.432Z,97244.03
2022-10-25T19:43:36.112Z,97223.41
2022-10-25T19:46:42.373Z,97219.38
2022-10-25T19:49:44.632Z,97216.91
2022-10-25T19:52:47.169Z,97226.59
2022-10-25T19:55:58.423Z,97197.75
2022-10-25T19:58:59.831Z,97211.88
2022-10-25T20:02:02.657Z,97208.81
2022-10-25T20:05:04.301Z,97208.38
2022-10-25T20:08:05.759Z,97196.16
2022-10-25T20:11:10.741Z,97188.38
2022-10-25T20:14:12.220Z,97190.22
2022-10-25T20:17:13.991Z,97196.34
2022-10-25T20:20:15.448Z,97189.41
2022-10-25T20:23:17.335Z,97184.09
2022-10-25T20:26:20.336Z,97191.03
2022-10-25T20:29:23.284Z,97198.00
2022-10-25T20:32:24.766Z,97199.63
2022-10-25T20:35:27.157Z,97189.78
2022-10-25T20:38:28.956Z,97191.44
2022-10-25T20:41:30.728Z,97187.56
2022-10-25T20:44:32.185Z,97192.69
2022-10-25T20:47:33.618Z,97191.44
2022-10-25T20:50:35.129Z,97192.25
2022-10-25T20:53:37.148Z,97194.91
2022-10-25T20:56:39.620Z,97198.19
2022-10-25T20:59:41.288Z,97193.88
2022-10-25T21:02:45.500Z,97199.19
2022-10-25T21:05:46.992Z,97201.66
2022-10-25T21:08:48.410Z,97203.69
2022-10-25T21:11:49.916Z,97197.94
2022-10-25T21:14:51.338Z,97197.31
2022-10-25T21:17:55.548Z,97187.09
2022-10-25T21:21:00.263Z,97189.13
2022-10-25T21:24:02.868Z,97195.47
2022-10-25T21:27:04.285Z,97192.56
2022-10-25T21:30:06.212Z,97192.53
2022-10-25T21:33:07.800Z,97179.00
2022-10-25T21:36:10.831Z,97180.41
2022-10-25T21:39:12.213Z,97173.66
2022-10-25T21:42:14.191Z,97175.28
2022-10-25T21:45:15.619Z,97172.44
2022-10-25T21:48:17.087Z,97173.88
2022-10-25T21:51:19.207Z,97172.22
2022-10-25T21:54:21.989Z,97172.22
2022-10-25T21:57:23.700Z,97182.25
2022-10-25T22:00:25.145Z,97183.88
2022-10-25T22:03:28.205Z,97173.25
2022-10-25T22:06:30.304Z,97182.44
2022-10-25T22:09:31.751Z,97177.94
2022-10-25T22:12:33.192Z,97169.59
2022-10-25T22:15:34.579Z,97172.06
2022-10-25T22:18:36.503Z,97164.28
2022-10-25T22:21:38.741Z,97155.53
2022-10-25T22:24:40.083Z,97142.81
2022-10-25T22:27:41.552Z,97147.75
2022-10-25T22:30:42.967Z,97150.41
2022-10-25T22:33:44.814Z,97144.09
2022-10-25T22:36:46.169Z,97159.44
2022-10-25T22:39:47.629Z,97154.59
2022-10-25T22:42:49.165Z,97149.94
2022-10-25T22:45:52.942Z,97149.56
2022-10-25T22:48:55.810Z,97146.28
2022-10-25T22:51:57.266Z,97153.88
2022-10-25T22:54:58.665Z,97145.47
2022-10-25T22:58:00.083Z,97145.91
2022-10-25T23:04:09.798Z,97147.97
2022-10-25T23:07:11.285Z,97151.88
2022-10-25T23:10:14.433Z,97150.69
2022-10-25T23:13:15.809Z,97159.47
2022-10-25T23:16:17.937Z,97159.91
2022-10-25T23:19:19.392Z,97163.78
2022-10-25T23:22:20.790Z,97160.56
2022-10-25T23:25:22.213Z,97158.50
2022-10-25T23:28:23.564Z,97156.88
2022-10-25T23:31:25.184Z,97160.56
2022-10-25T23:34:26.600Z,97153.81
2022-10-25T23:37:28.004Z,97152.56
2022-10-25T23:40:31.509Z,97159.34
2022-10-25T23:43:33.486Z,97159.13
2022-10-25T23:46:34.948Z,97139.09
2022-10-25T23:49:36.354Z,97139.91
2022-10-25T23:52:37.802Z,97133.97
2022-10-25T23:55:39.244Z,97143.78
2022-10-25T23:58:41.011Z,97138.28
